sensor_id;sensor_type;location;lat;lon;timestamp;P1;durP1;ratioP1;P2;durP2;ratioP2
30505;SDS011;17292;51.600;4.994;2023-11-22T00:00:55;5.28;;;1.65;;
30505;SDS011;17292;51.600;4.994;2023-11-22T00:03:21;4.28;;;1.70;;
30505;SDS011;17292;51.600;4.994;2023-11-22T00:05:49;4.28;;;1.75;;
30505;SDS011;17292;51.600;4.994;2023-11-22T00:08:16;7.88;;;2.17;;
30505;SDS011;17292;51.600;4.994;2023-11-22T00:10:42;4.88;;;1.80;;
30505;SDS011;17292;51.600;4.994;2023-11-22T00:13:09;4.57;;;1.90;;
30505;SDS011;17292;51.600;4.994;2023-11-22T00:15:36;4.53;;;1.77;;
30505;SDS011;17292;51.600;4.994;2023-11-22T00:18:03;4.30;;;1.73;;
30505;SDS011;17292;51.600;4.994;2023-11-22T00:20:29;4.88;;;1.90;;
30505;SDS011;17292;51.600;4.994;2023-11-22T00:22:55;4.80;;;1.90;;
30505;SDS011;17292;51.600;4.994;2023-11-22T00:25:22;7.82;;;2.05;;
30505;SDS011;17292;51.600;4.994;2023-11-22T00:27:48;4.95;;;1.85;;
30505;SDS011;17292;51.600;4.994;2023-11-22T00:30:14;2.00;;;1.52;;
30505;SDS011;17292;51.600;4.994;2023-11-22T00:32:40;5.28;;;1.77;;
30505;SDS011;17292;51.600;4.994;2023-11-22T00:35:07;8.00;;;1.95;;
30505;SDS011;17292;51.600;4.994;2023-11-22T00:37:33;4.18;;;1.75;;
30505;SDS011;17292;51.600;4.994;2023-11-22T00:40:02;9.02;;;2.35;;
30505;SDS011;17292;51.600;4.994;2023-11-22T00:42:38;6.10;;;2.17;;
30505;SDS011;17292;51.600;4.994;2023-11-22T00:45:06;5.70;;;1.90;;
30505;SDS011;17292;51.600;4.994;2023-11-22T00:47:33;5.55;;;2.13;;
30505;SDS011;17292;51.600;4.994;2023-11-22T00:49:59;2.83;;;1.92;;
30505;SDS011;17292;51.600;4.994;2023-11-22T00:52:26;4.07;;;1.98;;
30505;SDS011;17292;51.600;4.994;2023-11-22T00:54:54;4.00;;;1.90;;
30505;SDS011;17292;51.600;4.994;2023-11-22T00:57:20;3.45;;;1.55;;
30505;SDS011;17292;51.600;4.994;2023-11-22T00:59:46;4.20;;;1.98;;
30505;SDS011;17292;51.600;4.994;2023-11-22T01:02:13;3.08;;;1.75;;
30505;SDS011;17292;51.600;4.994;2023-11-22T01:04:39;7.07;;;1.88;;
30505;SDS011;17292;51.600;4.994;2023-11-22T01:07:05;3.95;;;1.95;;
30505;SDS011;17292;51.600;4.994;2023-11-22T01:09:34;4.65;;;1.70;;
30505;SDS011;17292;51.600;4.994;2023-11-22T01:12:00;2.17;;;1.60;;
30505;SDS011;17292;51.600;4.994;2023-11-22T01:14:27;2.80;;;1.65;;
30505;SDS011;17292;51.600;4.994;2023-11-22T01:16:54;5.85;;;1.73;;
30505;SDS011;17292;51.600;4.994;2023-11-22T01:19:20;4.57;;;1.90;;
30505;SDS011;17292;51.600;4.994;2023-11-22T01:21:47;5.22;;;2.00;;
30505;SDS011;17292;51.600;4.994;2023-11-22T01:24:13;4.35;;;1.67;;
30505;SDS011;17292;51.600;4.994;2023-11-22T01:26:40;7.05;;;1.92;;
30505;SDS011;17292;51.600;4.994;2023-11-22T01:29:06;2.58;;;1.65;;
30505;SDS011;17292;51.600;4.994;2023-11-22T01:31:32;6.50;;;1.60;;
30505;SDS011;17292;51.600;4.994;2023-11-22T01:34:01;4.25;;;1.90;;
30505;SDS011;17292;51.600;4.994;2023-11-22T01:36:29;4.93;;;1.80;;
30505;SDS011;17292;51.600;4.994;2023-11-22T01:38:55;4.55;;;1.65;;
30505;SDS011;17292;51.600;4.994;2023-11-22T01:41:21;4.53;;;1.77;;
30505;SDS011;17292;51.600;4.994;2023-11-22T01:43:47;4.22;;;2.10;;
30505;SDS011;17292;51.600;4.994;2023-11-22T01:46:22;3.20;;;1.60;;
30505;SDS011;17292;51.600;4.994;2023-11-22T01:48:51;4.88;;;1.60;;
30505;SDS011;17292;51.600;4.994;2023-11-22T01:51:19;6.35;;;2.00;;
30505;SDS011;17292;51.600;4.994;2023-11-22T01:53:46;4.63;;;2.15;;
30505;SDS011;17292;51.600;4.994;2023-11-22T01:56:12;3.53;;;1.83;;
30505;SDS011;17292;51.600;4.994;2023-11-22T01:58:39;3.25;;;1.58;;
30505;SDS011;17292;51.600;4.994;2023-11-22T02:01:05;2.92;;;1.98;;
30505;SDS011;17292;51.600;4.994;2023-11-22T02:03:31;2.97;;;1.65;;
30505;SDS011;17292;51.600;4.994;2023-11-22T02:05:58;4.88;;;1.80;;
30505;SDS011;17292;51.600;4.994;2023-11-22T02:08:25;3.80;;;2.05;;
30505;SDS011;17292;51.600;4.994;2023-11-22T02:10:59;4.07;;;2.00;;
30505;SDS011;17292;51.600;4.994;2023-11-22T02:13:28;4.05;;;1.80;;
30505;SDS011;17292;51.600;4.994;2023-11-22T02:15:55;4.10;;;1.70;;
30505;SDS011;17292;51.600;4.994;2023-11-22T02:18:22;5.63;;;2.05;;
30505;SDS011;17292;51.600;4.994;2023-11-22T02:20:48;3.75;;;1.67;;
30505;SDS011;17292;51.600;4.994;2023-11-22T02:23:15;6.38;;;1.95;;
30505;SDS011;17292;51.600;4.994;2023-11-22T02:25:42;5.32;;;1.80;;
30505;SDS011;17292;51.600;4.994;2023-11-22T02:28:08;4.88;;;1.85;;
30505;SDS011;17292;51.600;4.994;2023-11-22T02:30:34;4.95;;;1.55;;
30505;SDS011;17292;51.600;4.994;2023-11-22T02:33:01;4.03;;;1.40;;
30505;SDS011;17292;51.600;4.994;2023-11-22T02:35:27;4.70;;;1.80;;
30505;SDS011;17292;51.600;4.994;2023-11-22T02:37:54;2.65;;;1.55;;
30505;SDS011;17292;51.600;4.994;2023-11-22T02:40:20;4.63;;;1.90;;
30505;SDS011;17292;51.600;4.994;2023-11-22T02:42:47;4.50;;;1.58;;
30505;SDS011;17292;51.600;4.994;2023-11-22T02:45:17;2.80;;;1.58;;
30505;SDS011;17292;51.600;4.994;2023-11-22T02:47:44;3.50;;;1.85;;
30505;SDS011;17292;51.600;4.994;2023-11-22T02:50:14;4.28;;;1.42;;
30505;SDS011;17292;51.600;4.994;2023-11-22T02:52:40;5.05;;;1.95;;
30505;SDS011;17292;51.600;4.994;2023-11-22T02:55:07;3.53;;;1.70;;
30505;SDS011;17292;51.600;4.994;2023-11-22T02:57:34;2.45;;;1.38;;
30505;SDS011;17292;51.600;4.994;2023-11-22T03:00:01;5.07;;;1.95;;
30505;SDS011;17292;51.600;4.994;2023-11-22T03:02:29;3.30;;;1.48;;
30505;SDS011;17292;51.600;4.994;2023-11-22T03:04:57;3.55;;;1.92;;
30505;SDS011;17292;51.600;4.994;2023-11-22T03:07:23;3.25;;;1.67;;
30505;SDS011;17292;51.600;4.994;2023-11-22T03:09:50;3.22;;;1.52;;
30505;SDS011;17292;51.600;4.994;2023-11-22T03:12:18;3.78;;;1.60;;
30505;SDS011;17292;51.600;4.994;2023-11-22T03:14:45;3.78;;;1.75;;
30505;SDS011;17292;51.600;4.994;2023-11-22T03:17:11;5.25;;;2.00;;
30505;SDS011;17292;51.600;4.994;2023-11-22T03:19:38;3.03;;;1.85;;
30505;SDS011;17292;51.600;4.994;2023-11-22T03:22:05;2.88;;;1.58;;
30505;SDS011;17292;51.600;4.994;2023-11-22T03:24:32;3.53;;;1.50;;
30505;SDS011;17292;51.600;4.994;2023-11-22T03:27:02;4.43;;;2.00;;
30505;SDS011;17292;51.600;4.994;2023-11-22T03:29:28;2.65;;;1.65;;
30505;SDS011;17292;51.600;4.994;2023-11-22T03:31:55;3.53;;;1.80;;
30505;SDS011;17292;51.600;4.994;2023-11-22T03:34:21;3.25;;;1.75;;
30505;SDS011;17292;51.600;4.994;2023-11-22T03:36:47;4.82;;;1.92;;
30505;SDS011;17292;51.600;4.994;2023-11-22T03:39:17;3.38;;;1.58;;
30505;SDS011;17292;51.600;4.994;2023-11-22T03:41:43;2.40;;;1.40;;
30505;SDS011;17292;51.600;4.994;2023-11-22T03:44:09;5.50;;;1.88;;
30505;SDS011;17292;51.600;4.994;2023-11-22T03:46:36;4.47;;;1.65;;
30505;SDS011;17292;51.600;4.994;2023-11-22T03:49:05;5.43;;;1.92;;
30505;SDS011;17292;51.600;4.994;2023-11-22T03:51:32;4.25;;;1.70;;
30505;SDS011;17292;51.600;4.994;2023-11-22T03:53:58;5.25;;;1.77;;
30505;SDS011;17292;51.600;4.994;2023-11-22T03:56:25;2.80;;;1.48;;
30505;SDS011;17292;51.600;4.994;2023-11-22T03:58:51;3.63;;;1.70;;
30505;SDS011;17292;51.600;4.994;2023-11-22T04:01:17;4.10;;;1.85;;
30505;SDS011;17292;51.600;4.994;2023-11-22T04:03:45;3.42;;;1.45;;
30505;SDS011;17292;51.600;4.994;2023-11-22T04:06:14;2.80;;;1.45;;
30505;SDS011;17292;51.600;4.994;2023-11-22T04:08:41;3.45;;;1.55;;
30505;SDS011;17292;51.600;4.994;2023-11-22T04:11:09;2.53;;;1.50;;
30505;SDS011;17292;51.600;4.994;2023-11-22T04:13:35;3.95;;;1.75;;
30505;SDS011;17292;51.600;4.994;2023-11-22T04:16:01;1.98;;;1.50;;
30505;SDS011;17292;51.600;4.994;2023-11-22T04:18:27;2.90;;;1.80;;
30505;SDS011;17292;51.600;4.994;2023-11-22T04:20:53;4.78;;;1.85;;
30505;SDS011;17292;51.600;4.994;2023-11-22T04:23:20;1.90;;;1.35;;
30505;SDS011;17292;51.600;4.994;2023-11-22T04:25:46;2.33;;;1.60;;
30505;SDS011;17292;51.600;4.994;2023-11-22T04:28:14;4.03;;;1.65;;
30505;SDS011;17292;51.600;4.994;2023-11-22T04:30:40;3.92;;;1.80;;
30505;SDS011;17292;51.600;4.994;2023-11-22T04:33:07;3.05;;;1.63;;
30505;SDS011;17292;51.600;4.994;2023-11-22T04:35:33;3.42;;;1.40;;
30505;SDS011;17292;51.600;4.994;2023-11-22T04:38:02;3.67;;;1.70;;
30505;SDS011;17292;51.600;4.994;2023-11-22T04:40:29;4.90;;;1.90;;
30505;SDS011;17292;51.600;4.994;2023-11-22T04:42:55;2.50;;;1.38;;
30505;SDS011;17292;51.600;4.994;2023-11-22T04:45:21;3.30;;;1.98;;
30505;SDS011;17292;51.600;4.994;2023-11-22T04:47:47;3.20;;;1.60;;
30505;SDS011;17292;51.600;4.994;2023-11-22T04:50:13;4.05;;;1.75;;
30505;SDS011;17292;51.600;4.994;2023-11-22T04:52:40;4.93;;;1.90;;
30505;SDS011;17292;51.600;4.994;2023-11-22T04:55:06;4.18;;;1.58;;
30505;SDS011;17292;51.600;4.994;2023-11-22T04:57:32;4.30;;;1.67;;
30505;SDS011;17292;51.600;4.994;2023-11-22T04:59:59;4.13;;;1.30;;
30505;SDS011;17292;51.600;4.994;2023-11-22T05:02:25;3.85;;;1.90;;
30505;SDS011;17292;51.600;4.994;2023-11-22T05:04:52;4.30;;;1.73;;
30505;SDS011;17292;51.600;4.994;2023-11-22T05:07:18;2.20;;;1.70;;
30505;SDS011;17292;51.600;4.994;2023-11-22T05:09:44;3.00;;;1.48;;
30505;SDS011;17292;51.600;4.994;2023-11-22T05:12:10;3.30;;;1.55;;
30505;SDS011;17292;51.600;4.994;2023-11-22T05:14:37;2.45;;;1.70;;
30505;SDS011;17292;51.600;4.994;2023-11-22T05:17:04;2.97;;;1.58;;
30505;SDS011;17292;51.600;4.994;2023-11-22T05:19:30;3.95;;;1.75;;
30505;SDS011;17292;51.600;4.994;2023-11-22T05:21:57;3.83;;;1.67;;
30505;SDS011;17292;51.600;4.994;2023-11-22T05:24:23;3.38;;;1.77;;
30505;SDS011;17292;51.600;4.994;2023-11-22T05:26:49;3.88;;;1.67;;
30505;SDS011;17292;51.600;4.994;2023-11-22T05:29:16;3.80;;;1.50;;
30505;SDS011;17292;51.600;4.994;2023-11-22T05:31:42;1.40;;;1.15;;
30505;SDS011;17292;51.600;4.994;2023-11-22T05:34:08;2.38;;;1.60;;
30505;SDS011;17292;51.600;4.994;2023-11-22T05:36:34;1.70;;;1.30;;
30505;SDS011;17292;51.600;4.994;2023-11-22T05:39:00;3.83;;;1.85;;
30505;SDS011;17292;51.600;4.994;2023-11-22T05:41:28;1.83;;;1.48;;
30505;SDS011;17292;51.600;4.994;2023-11-22T05:43:55;2.95;;;1.50;;
30505;SDS011;17292;51.600;4.994;2023-11-22T05:46:22;2.63;;;1.60;;
30505;SDS011;17292;51.600;4.994;2023-11-22T05:48:50;1.88;;;1.50;;
30505;SDS011;17292;51.600;4.994;2023-11-22T05:51:16;2.80;;;1.45;;
30505;SDS011;17292;51.600;4.994;2023-11-22T05:53:43;1.85;;;1.58;;
30505;SDS011;17292;51.600;4.994;2023-11-22T05:56:09;3.20;;;1.63;;
30505;SDS011;17292;51.600;4.994;2023-11-22T05:58:35;3.47;;;1.92;;
30505;SDS011;17292;51.600;4.994;2023-11-22T06:01:05;3.78;;;1.48;;
30505;SDS011;17292;51.600;4.994;2023-11-22T06:03:32;3.55;;;1.67;;
30505;SDS011;17292;51.600;4.994;2023-11-22T06:05:58;3.08;;;1.45;;
30505;SDS011;17292;51.600;4.994;2023-11-22T06:08:24;1.83;;;1.20;;
30505;SDS011;17292;51.600;4.994;2023-11-22T06:10:50;1.92;;;1.40;;
30505;SDS011;17292;51.600;4.994;2023-11-22T06:13:18;3.72;;;1.63;;
30505;SDS011;17292;51.600;4.994;2023-11-22T06:15:44;2.20;;;1.30;;
30505;SDS011;17292;51.600;4.994;2023-11-22T06:18:11;2.60;;;1.70;;
30505;SDS011;17292;51.600;4.994;2023-11-22T06:20:39;3.00;;;1.40;;
30505;SDS011;17292;51.600;4.994;2023-11-22T06:23:05;2.30;;;1.25;;
30505;SDS011;17292;51.600;4.994;2023-11-22T06:25:31;3.05;;;1.33;;
30505;SDS011;17292;51.600;4.994;2023-11-22T06:27:57;2.80;;;1.20;;
30505;SDS011;17292;51.600;4.994;2023-11-22T06:30:24;3.75;;;1.50;;
30505;SDS011;17292;51.600;4.994;2023-11-22T06:32:50;3.88;;;1.55;;
30505;SDS011;17292;51.600;4.994;2023-11-22T06:35:17;2.78;;;1.52;;
30505;SDS011;17292;51.600;4.994;2023-11-22T06:37:43;3.35;;;1.40;;
30505;SDS011;17292;51.600;4.994;2023-11-22T06:40:10;3.83;;;1.60;;
30505;SDS011;17292;51.600;4.994;2023-11-22T06:42:42;3.70;;;1.48;;
30505;SDS011;17292;51.600;4.994;2023-11-22T06:45:08;3.55;;;1.33;;
30505;SDS011;17292;51.600;4.994;2023-11-22T06:47:44;3.70;;;1.20;;
30505;SDS011;17292;51.600;4.994;2023-11-22T06:50:10;1.80;;;1.30;;
30505;SDS011;17292;51.600;4.994;2023-11-22T06:52:37;4.45;;;1.80;;
30505;SDS011;17292;51.600;4.994;2023-11-22T06:55:04;5.53;;;1.52;;
30505;SDS011;17292;51.600;4.994;2023-11-22T06:57:33;4.88;;;1.73;;
30505;SDS011;17292;51.600;4.994;2023-11-22T06:59:59;3.80;;;1.60;;
30505;SDS011;17292;51.600;4.994;2023-11-22T07:02:26;2.63;;;1.45;;
30505;SDS011;17292;51.600;4.994;2023-11-22T07:04:52;3.53;;;1.60;;
30505;SDS011;17292;51.600;4.994;2023-11-22T07:07:19;1.67;;;1.35;;
30505;SDS011;17292;51.600;4.994;2023-11-22T07:09:45;2.38;;;1.40;;
30505;SDS011;17292;51.600;4.994;2023-11-22T07:12:11;5.78;;;1.52;;
30505;SDS011;17292;51.600;4.994;2023-11-22T07:14:37;5.00;;;1.73;;
30505;SDS011;17292;51.600;4.994;2023-11-22T07:17:04;4.60;;;1.40;;
30505;SDS011;17292;51.600;4.994;2023-11-22T07:19:32;4.75;;;1.52;;
30505;SDS011;17292;51.600;4.994;2023-11-22T07:22:05;7.15;;;1.52;;
30505;SDS011;17292;51.600;4.994;2023-11-22T07:24:44;5.03;;;1.60;;
30505;SDS011;17292;51.600;4.994;2023-11-22T07:27:13;5.95;;;1.83;;
30505;SDS011;17292;51.600;4.994;2023-11-22T07:29:40;3.63;;;2.13;;
30505;SDS011;17292;51.600;4.994;2023-11-22T07:32:07;6.97;;;1.77;;
30505;SDS011;17292;51.600;4.994;2023-11-22T07:34:36;6.63;;;1.92;;
30505;SDS011;17292;51.600;4.994;2023-11-22T07:37:04;4.07;;;1.58;;
30505;SDS011;17292;51.600;4.994;2023-11-22T07:39:32;8.13;;;1.90;;
30505;SDS011;17292;51.600;4.994;2023-11-22T07:42:00;8.70;;;1.92;;
30505;SDS011;17292;51.600;4.994;2023-11-22T07:44:26;7.00;;;1.92;;
30505;SDS011;17292;51.600;4.994;2023-11-22T07:46:52;3.47;;;1.30;;
30505;SDS011;17292;51.600;4.994;2023-11-22T07:49:19;4.78;;;1.58;;
30505;SDS011;17292;51.600;4.994;2023-11-22T07:51:46;4.80;;;1.20;;
30505;SDS011;17292;51.600;4.994;2023-11-22T07:54:12;2.65;;;1.50;;
30505;SDS011;17292;51.600;4.994;2023-11-22T07:56:42;9.00;;;1.80;;
30505;SDS011;17292;51.600;4.994;2023-11-22T07:59:09;9.55;;;2.13;;
30505;SDS011;17292;51.600;4.994;2023-11-22T08:01:38;4.85;;;1.42;;
30505;SDS011;17292;51.600;4.994;2023-11-22T08:04:04;6.32;;;1.75;;
30505;SDS011;17292;51.600;4.994;2023-11-22T08:06:33;2.70;;;1.40;;
30505;SDS011;17292;51.600;4.994;2023-11-22T08:09:00;3.08;;;1.50;;
30505;SDS011;17292;51.600;4.994;2023-11-22T08:11:26;2.92;;;1.63;;
30505;SDS011;17292;51.600;4.994;2023-11-22T08:13:53;4.18;;;1.70;;
30505;SDS011;17292;51.600;4.994;2023-11-22T08:16:22;6.28;;;1.77;;
30505;SDS011;17292;51.600;4.994;2023-11-22T08:18:49;1.80;;;1.42;;
30505;SDS011;17292;51.600;4.994;2023-11-22T08:21:16;4.43;;;1.55;;
30505;SDS011;17292;51.600;4.994;2023-11-22T08:23:42;7.05;;;1.90;;
30505;SDS011;17292;51.600;4.994;2023-11-22T08:26:08;7.70;;;2.13;;
30505;SDS011;17292;51.600;4.994;2023-11-22T08:28:36;2.47;;;1.42;;
30505;SDS011;17292;51.600;4.994;2023-11-22T08:31:03;11.30;;;2.20;;
30505;SDS011;17292;51.600;4.994;2023-11-22T08:33:29;2.70;;;1.48;;
30505;SDS011;17292;51.600;4.994;2023-11-22T08:35:55;4.82;;;1.45;;
30505;SDS011;17292;51.600;4.994;2023-11-22T08:38:26;7.60;;;1.55;;
30505;SDS011;17292;51.600;4.994;2023-11-22T08:40:52;3.05;;;1.40;;
30505;SDS011;17292;51.600;4.994;2023-11-22T08:43:20;5.65;;;1.63;;
30505;SDS011;17292;51.600;4.994;2023-11-22T08:45:51;7.80;;;1.70;;
30505;SDS011;17292;51.600;4.994;2023-11-22T08:48:17;3.55;;;1.70;;
30505;SDS011;17292;51.600;4.994;2023-11-22T08:50:43;9.05;;;1.75;;
30505;SDS011;17292;51.600;4.994;2023-11-22T08:53:10;6.63;;;1.88;;
30505;SDS011;17292;51.600;4.994;2023-11-22T08:55:36;2.92;;;1.30;;
30505;SDS011;17292;51.600;4.994;2023-11-22T08:58:02;3.97;;;1.58;;
30505;SDS011;17292;51.600;4.994;2023-11-22T09:00:28;6.60;;;1.60;;
30505;SDS011;17292;51.600;4.994;2023-11-22T09:02:57;4.25;;;1.70;;
30505;SDS011;17292;51.600;4.994;2023-11-22T09:05:23;4.60;;;1.92;;
30505;SDS011;17292;51.600;4.994;2023-11-22T09:07:49;7.20;;;1.95;;
30505;SDS011;17292;51.600;4.994;2023-11-22T09:10:16;6.72;;;1.35;;
30505;SDS011;17292;51.600;4.994;2023-11-22T09:12:44;5.53;;;1.42;;
30505;SDS011;17292;51.600;4.994;2023-11-22T09:15:13;6.25;;;1.40;;
30505;SDS011;17292;51.600;4.994;2023-11-22T09:17:42;5.35;;;1.75;;
30505;SDS011;17292;51.600;4.994;2023-11-22T09:20:09;4.68;;;1.85;;
30505;SDS011;17292;51.600;4.994;2023-11-22T09:22:43;7.45;;;1.67;;
30505;SDS011;17292;51.600;4.994;2023-11-22T09:25:22;9.93;;;2.08;;
30505;SDS011;17292;51.600;4.994;2023-11-22T09:27:50;4.10;;;1.50;;
30505;SDS011;17292;51.600;4.994;2023-11-22T09:30:19;6.03;;;2.00;;
30505;SDS011;17292;51.600;4.994;2023-11-22T09:32:58;5.82;;;1.58;;
30505;SDS011;17292;51.600;4.994;2023-11-22T09:35:25;3.60;;;1.60;;
30505;SDS011;17292;51.600;4.994;2023-11-22T09:37:51;3.97;;;1.40;;
30505;SDS011;17292;51.600;4.994;2023-11-22T09:40:17;7.70;;;1.83;;
30505;SDS011;17292;51.600;4.994;2023-11-22T09:42:44;4.13;;;1.70;;
30505;SDS011;17292;51.600;4.994;2023-11-22T09:45:16;4.97;;;1.95;;
30505;SDS011;17292;51.600;4.994;2023-11-22T09:47:43;5.55;;;2.17;;
30505;SDS011;17292;51.600;4.994;2023-11-22T09:50:10;5.10;;;1.67;;
30505;SDS011;17292;51.600;4.994;2023-11-22T09:52:39;8.65;;;2.70;;
30505;SDS011;17292;51.600;4.994;2023-11-22T09:55:07;3.38;;;1.80;;
30505;SDS011;17292;51.600;4.994;2023-11-22T09:57:34;9.60;;;1.95;;
30505;SDS011;17292;51.600;4.994;2023-11-22T10:00:02;4.55;;;1.73;;
30505;SDS011;17292;51.600;4.994;2023-11-22T10:02:29;6.40;;;1.58;;
30505;SDS011;17292;51.600;4.994;2023-11-22T10:04:55;3.83;;;1.90;;
30505;SDS011;17292;51.600;4.994;2023-11-22T10:07:21;4.03;;;1.92;;
30505;SDS011;17292;51.600;4.994;2023-11-22T10:09:48;6.35;;;1.92;;
30505;SDS011;17292;51.600;4.994;2023-11-22T10:12:19;3.22;;;1.40;;
30505;SDS011;17292;51.600;4.994;2023-11-22T10:14:46;6.95;;;1.60;;
30505;SDS011;17292;51.600;4.994;2023-11-22T10:17:13;5.47;;;1.77;;
30505;SDS011;17292;51.600;4.994;2023-11-22T10:19:42;5.93;;;1.67;;
30505;SDS011;17292;51.600;4.994;2023-11-22T10:22:08;9.63;;;1.90;;
30505;SDS011;17292;51.600;4.994;2023-11-22T10:24:35;4.72;;;1.90;;
30505;SDS011;17292;51.600;4.994;2023-11-22T10:27:01;2.88;;;1.48;;
30505;SDS011;17292;51.600;4.994;2023-11-22T10:29:28;1.77;;;1.27;;
30505;SDS011;17292;51.600;4.994;2023-11-22T10:31:54;9.93;;;1.95;;
30505;SDS011;17292;51.600;4.994;2023-11-22T10:34:22;2.67;;;1.40;;
30505;SDS011;17292;51.600;4.994;2023-11-22T10:36:49;3.15;;;1.65;;
30505;SDS011;17292;51.600;4.994;2023-11-22T10:39:18;7.50;;;1.75;;
30505;SDS011;17292;51.600;4.994;2023-11-22T10:41:45;4.60;;;1.55;;
30505;SDS011;17292;51.600;4.994;2023-11-22T10:44:11;4.25;;;2.10;;
30505;SDS011;17292;51.600;4.994;2023-11-22T10:46:40;4.18;;;2.00;;
30505;SDS011;17292;51.600;4.994;2023-11-22T10:49:07;7.97;;;2.08;;
30505;SDS011;17292;51.600;4.994;2023-11-22T10:51:33;7.57;;;2.00;;
30505;SDS011;17292;51.600;4.994;2023-11-22T10:54:00;8.48;;;1.98;;
30505;SDS011;17292;51.600;4.994;2023-11-22T10:56:28;5.95;;;1.50;;
30505;SDS011;17292;51.600;4.994;2023-11-22T10:58:58;6.20;;;2.25;;
30505;SDS011;17292;51.600;4.994;2023-11-22T11:01:26;6.07;;;1.80;;
30505;SDS011;17292;51.600;4.994;2023-11-22T11:03:59;9.32;;;1.90;;
30505;SDS011;17292;51.600;4.994;2023-11-22T11:06:31;8.40;;;1.98;;
30505;SDS011;17292;51.600;4.994;2023-11-22T11:09:02;7.97;;;1.65;;
30505;SDS011;17292;51.600;4.994;2023-11-22T11:11:34;5.03;;;1.58;;
30505;SDS011;17292;51.600;4.994;2023-11-22T11:14:04;4.43;;;1.90;;
30505;SDS011;17292;51.600;4.994;2023-11-22T11:16:32;12.35;;;2.22;;
30505;SDS011;17292;51.600;4.994;2023-11-22T11:18:59;7.07;;;2.25;;
30505;SDS011;17292;51.600;4.994;2023-11-22T11:21:26;11.70;;;2.10;;
30505;SDS011;17292;51.600;4.994;2023-11-22T11:23:52;3.47;;;1.55;;
30505;SDS011;17292;51.600;4.994;2023-11-22T11:26:20;8.25;;;2.08;;
30505;SDS011;17292;51.600;4.994;2023-11-22T11:28:47;18.20;;;2.28;;
30505;SDS011;17292;51.600;4.994;2023-11-22T11:31:14;9.30;;;2.10;;
30505;SDS011;17292;51.600;4.994;2023-11-22T11:38:50;10.15;;;1.73;;
30505;SDS011;17292;51.600;4.994;2023-11-22T11:41:17;17.67;;;2.78;;
30505;SDS011;17292;51.600;4.994;2023-11-22T11:43:43;7.93;;;1.70;;
30505;SDS011;17292;51.600;4.994;2023-11-22T11:46:13;8.90;;;1.63;;
30505;SDS011;17292;51.600;4.994;2023-11-22T11:48:58;14.32;;;1.83;;
30505;SDS011;17292;51.600;4.994;2023-11-22T11:51:25;15.77;;;2.45;;
30505;SDS011;17292;51.600;4.994;2023-11-22T11:53:52;9.85;;;2.45;;
30505;SDS011;17292;51.600;4.994;2023-11-22T11:56:19;24.88;;;2.78;;
30505;SDS011;17292;51.600;4.994;2023-11-22T11:58:45;14.48;;;2.75;;
30505;SDS011;17292;51.600;4.994;2023-11-22T12:01:13;8.75;;;2.45;;
30505;SDS011;17292;51.600;4.994;2023-11-22T12:03:41;8.77;;;2.25;;
30505;SDS011;17292;51.600;4.994;2023-11-22T12:06:08;9.02;;;2.40;;
30505;SDS011;17292;51.600;4.994;2023-11-22T12:08:35;10.77;;;2.30;;
30505;SDS011;17292;51.600;4.994;2023-11-22T12:11:02;12.23;;;2.10;;
30505;SDS011;17292;51.600;4.994;2023-11-22T12:13:37;5.22;;;1.27;;
30505;SDS011;17292;51.600;4.994;2023-11-22T12:16:04;6.13;;;1.90;;
30505;SDS011;17292;51.600;4.994;2023-11-22T12:18:42;6.35;;;1.65;;
30505;SDS011;17292;51.600;4.994;2023-11-22T12:21:08;11.30;;;1.52;;
30505;SDS011;17292;51.600;4.994;2023-11-22T12:23:41;7.95;;;1.65;;
30505;SDS011;17292;51.600;4.994;2023-11-22T12:26:14;7.80;;;1.75;;
30505;SDS011;17292;51.600;4.994;2023-11-22T12:28:41;7.00;;;1.60;;
30505;SDS011;17292;51.600;4.994;2023-11-22T12:31:08;18.88;;;2.38;;
30505;SDS011;17292;51.600;4.994;2023-11-22T12:33:35;2.70;;;1.80;;
30505;SDS011;17292;51.600;4.994;2023-11-22T12:36:02;12.65;;;2.22;;
30505;SDS011;17292;51.600;4.994;2023-11-22T12:38:29;6.78;;;1.80;;
30505;SDS011;17292;51.600;4.994;2023-11-22T12:40:58;10.60;;;1.95;;
30505;SDS011;17292;51.600;4.994;2023-11-22T12:43:25;8.32;;;1.77;;
30505;SDS011;17292;51.600;4.994;2023-11-22T12:45:58;7.57;;;1.98;;
30505;SDS011;17292;51.600;4.994;2023-11-22T12:48:24;11.68;;;2.58;;
30505;SDS011;17292;51.600;4.994;2023-11-22T12:50:51;12.18;;;2.10;;
30505;SDS011;17292;51.600;4.994;2023-11-22T12:53:18;10.52;;;2.03;;
30505;SDS011;17292;51.600;4.994;2023-11-22T12:55:50;8.98;;;1.58;;
30505;SDS011;17292;51.600;4.994;2023-11-22T12:58:17;13.10;;;2.97;;
30505;SDS011;17292;51.600;4.994;2023-11-22T13:00:43;9.35;;;2.40;;
30505;SDS011;17292;51.600;4.994;2023-11-22T13:03:10;13.23;;;2.40;;
30505;SDS011;17292;51.600;4.994;2023-11-22T13:05:37;15.50;;;2.33;;
30505;SDS011;17292;51.600;4.994;2023-11-22T13:08:03;7.85;;;2.10;;
30505;SDS011;17292;51.600;4.994;2023-11-22T13:10:29;12.40;;;2.22;;
30505;SDS011;17292;51.600;4.994;2023-11-22T13:12:56;3.83;;;1.85;;
30505;SDS011;17292;51.600;4.994;2023-11-22T13:15:22;5.00;;;1.67;;
30505;SDS011;17292;51.600;4.994;2023-11-22T13:17:50;7.60;;;1.92;;
30505;SDS011;17292;51.600;4.994;2023-11-22T13:20:21;14.18;;;1.77;;
30505;SDS011;17292;51.600;4.994;2023-11-22T13:22:48;3.00;;;1.80;;
30505;SDS011;17292;51.600;4.994;2023-11-22T13:25:14;7.35;;;2.08;;
30505;SDS011;17292;51.600;4.994;2023-11-22T13:27:47;5.88;;;1.52;;
30505;SDS011;17292;51.600;4.994;2023-11-22T13:30:16;4.32;;;1.90;;
30505;SDS011;17292;51.600;4.994;2023-11-22T13:32:44;11.40;;;2.50;;
30505;SDS011;17292;51.600;4.994;2023-11-22T13:35:11;5.40;;;1.80;;
30505;SDS011;17292;51.600;4.994;2023-11-22T13:37:42;9.40;;;2.40;;
30505;SDS011;17292;51.600;4.994;2023-11-22T13:40:09;13.77;;;2.30;;
30505;SDS011;17292;51.600;4.994;2023-11-22T13:42:46;8.63;;;2.03;;
30505;SDS011;17292;51.600;4.994;2023-11-22T13:45:15;9.95;;;2.88;;
30505;SDS011;17292;51.600;4.994;2023-11-22T13:47:45;6.50;;;2.33;;
30505;SDS011;17292;51.600;4.994;2023-11-22T13:50:12;8.68;;;2.25;;
30505;SDS011;17292;51.600;4.994;2023-11-22T13:52:40;8.30;;;2.38;;
30505;SDS011;17292;51.600;4.994;2023-11-22T13:55:07;5.70;;;1.92;;
30505;SDS011;17292;51.600;4.994;2023-11-22T13:57:36;14.55;;;2.92;;
30505;SDS011;17292;51.600;4.994;2023-11-22T14:00:03;7.78;;;1.67;;
30505;SDS011;17292;51.600;4.994;2023-11-22T14:05:00;7.15;;;3.38;;
30505;SDS011;17292;51.600;4.994;2023-11-22T14:07:27;15.35;;;4.85;;
30505;SDS011;17292;51.600;4.994;2023-11-22T14:09:53;17.60;;;5.07;;
30505;SDS011;17292;51.600;4.994;2023-11-22T14:12:19;14.85;;;5.70;;
30505;SDS011;17292;51.600;4.994;2023-11-22T14:14:45;9.38;;;3.55;;
30505;SDS011;17292;51.600;4.994;2023-11-22T14:17:11;13.98;;;5.03;;
30505;SDS011;17292;51.600;4.994;2023-11-22T14:19:39;14.20;;;4.72;;
30505;SDS011;17292;51.600;4.994;2023-11-22T14:22:05;13.35;;;3.15;;
30505;SDS011;17292;51.600;4.994;2023-11-22T14:24:33;13.43;;;3.70;;
30505;SDS011;17292;51.600;4.994;2023-11-22T14:27:02;5.78;;;2.90;;
30505;SDS011;17292;51.600;4.994;2023-11-22T14:29:29;14.23;;;2.72;;
30505;SDS011;17292;51.600;4.994;2023-11-22T14:31:55;5.50;;;2.42;;
30505;SDS011;17292;51.600;4.994;2023-11-22T14:34:22;10.60;;;2.83;;
30505;SDS011;17292;51.600;4.994;2023-11-22T14:36:48;9.85;;;2.92;;
30505;SDS011;17292;51.600;4.994;2023-11-22T14:39:14;12.43;;;4.22;;
30505;SDS011;17292;51.600;4.994;2023-11-22T14:41:41;10.13;;;3.55;;
30505;SDS011;17292;51.600;4.994;2023-11-22T14:44:07;16.02;;;3.90;;
30505;SDS011;17292;51.600;4.994;2023-11-22T14:46:34;14.27;;;4.95;;
30505;SDS011;17292;51.600;4.994;2023-11-22T14:49:02;17.58;;;5.00;;
30505;SDS011;17292;51.600;4.994;2023-11-22T14:51:29;16.55;;;5.57;;
30505;SDS011;17292;51.600;4.994;2023-11-22T14:53:55;17.52;;;5.80;;